createdAt,value
2018-05-25T00:00:22.286Z,948.75
2018-05-25T00:01:22.288Z,948.72
2018-05-25T00:02:22.287Z,948.69
2018-05-25T00:03:22.276Z,948.71
2018-05-25T00:04:22.269Z,948.75
2018-05-25T00:05:22.306Z,948.69
2018-05-25T00:06:22.253Z,948.71
2018-05-25T00:07:22.265Z,948.71
2018-05-25T00:08:22.253Z,948.68
2018-05-25T00:09:22.249Z,948.67
2018-05-25T00:10:22.263Z,948.70
2018-05-25T00:11:22.242Z,948.69
2018-05-25T00:12:22.237Z,948.67
2018-05-25T00:13:22.234Z,948.64
2018-05-25T00:14:22.223Z,948.65
2018-05-25T00:15:22.221Z,948.67
2018-05-25T00:16:22.218Z,948.66
2018-05-25T00:17:22.212Z,948.66
2018-05-25T00:18:22.211Z,948.64
2018-05-25T00:19:22.205Z,948.63
2018-05-25T00:20:22.216Z,948.63
2018-05-25T00:21:22.196Z,948.66
2018-05-25T00:22:22.206Z,948.63
2018-05-25T00:23:22.192Z,948.63
2018-05-25T00:24:22.183Z,948.65
2018-05-25T00:25:22.180Z,948.65
2018-05-25T00:26:22.176Z,948.66
2018-05-25T00:27:22.168Z,948.68
2018-05-25T00:28:22.157Z,948.72
2018-05-25T00:29:22.161Z,948.71
2018-05-25T00:30:22.158Z,948.74
2018-05-25T00:31:22.140Z,948.73
2018-05-25T00:32:22.144Z,948.72
2018-05-25T00:33:22.144Z,948.74
2018-05-25T00:34:22.146Z,948.77
2018-05-25T00:35:22.125Z,948.72
2018-05-25T00:36:22.132Z,948.74
2018-05-25T00:37:22.129Z,948.72
2018-05-25T00:38:22.126Z,948.73
2018-05-25T00:39:22.142Z,948.70
2018-05-25T00:40:22.143Z,948.70
2018-05-25T00:41:22.110Z,948.69
2018-05-25T00:42:22.112Z,948.70
2018-05-25T00:43:22.110Z,948.71
2018-05-25T00:44:22.101Z,948.67
2018-05-25T00:45:22.098Z,948.68
2018-05-25T00:46:22.090Z,948.70
2018-05-25T00:47:22.087Z,948.65
2018-05-25T00:48:22.082Z,948.67
2018-05-25T00:49:22.079Z,948.64
2018-05-25T00:50:22.102Z,948.66
2018-05-25T00:51:22.064Z,948.66
2018-05-25T00:52:22.066Z,948.65
2018-05-25T00:53:22.059Z,948.65
2018-05-25T00:54:22.055Z,948.66
2018-05-25T00:55:22.050Z,948.61
2018-05-25T00:56:22.048Z,948.64
2018-05-25T00:57:22.045Z,948.65
2018-05-25T00:58:22.052Z,948.69
2018-05-25T00:59:22.034Z,948.69
2018-05-25T01:00:22.050Z,948.68
2018-05-25T01:01:23.209Z,948.67
2018-05-25T01:02:22.036Z,948.71
2018-05-25T01:03:22.017Z,948.71
2018-05-25T01:04:22.015Z,948.72
2018-05-25T01:05:22.011Z,948.71
2018-05-25T01:06:22.015Z,948.71
2018-05-25T01:07:22.006Z,948.70
2018-05-25T01:08:21.998Z,948.67
2018-05-25T01:09:21.987Z,948.70
2018-05-25T01:10:21.987Z,948.69
2018-05-25T01:11:21.985Z,948.67
2018-05-25T01:12:21.983Z,948.70
2018-05-25T01:13:21.983Z,948.68
2018-05-25T01:14:21.981Z,948.66
2018-05-25T01:15:21.965Z,948.66
2018-05-25T01:16:21.965Z,948.58
2018-05-25T01:17:21.961Z,948.63
2018-05-25T01:18:21.952Z,948.58
2018-05-25T01:19:21.946Z,948.63
2018-05-25T01:20:21.944Z,948.60
2018-05-25T01:21:21.939Z,948.61
2018-05-25T01:22:21.932Z,948.62
2018-05-25T01:23:21.918Z,948.63
2018-05-25T01:24:21.921Z,948.60
2018-05-25T01:25:21.920Z,948.65
2018-05-25T01:26:21.921Z,948.63
2018-05-25T01:27:21.913Z,948.60
2018-05-25T01:28:21.929Z,948.66
2018-05-25T01:29:21.903Z,948.65
2018-05-25T01:30:21.889Z,948.65
2018-05-25T02:03:01.116Z,948.55
2018-05-25T02:04:01.085Z,948.58
2018-05-25T02:05:54.035Z,948.58
2018-05-25T02:06:53.998Z,948.57
2018-05-25T02:08:46.914Z,948.55
2018-05-25T02:09:46.898Z,948.58
2018-05-25T02:11:39.809Z,948.55
2018-05-25T02:12:39.780Z,948.53
2018-05-25T02:13:39.773Z,948.52
2018-05-25T02:14:39.767Z,948.51
2018-05-25T02:15:39.757Z,948.51
2018-05-25T02:16:39.764Z,948.52
2018-05-25T02:17:39.768Z,948.53
2018-05-25T02:18:39.741Z,948.50
2018-05-25T02:19:39.733Z,948.51
2018-05-25T02:20:39.739Z,948.50
2018-05-25T02:21:39.724Z,948.53
2018-05-25T02:22:39.717Z,948.50
2018-05-25T02:23:39.710Z,948.47
2018-05-25T02:24:39.702Z,948.50
2018-05-25T02:25:39.702Z,948.51
2018-05-25T02:26:39.697Z,948.50
2018-05-25T02:27:39.688Z,948.46
2018-05-25T02:28:39.686Z,948.46
2018-05-25T02:29:39.680Z,948.44
2018-05-25T02:30:39.678Z,948.45
2018-05-25T02:31:39.665Z,948.45
2018-05-25T02:32:39.667Z,948.41
2018-05-25T02:33:39.660Z,948.39
2018-05-25T02:34:39.667Z,948.43
2018-05-25T02:35:39.653Z,948.39
2018-05-25T02:36:39.663Z,948.44
2018-05-25T02:37:39.640Z,948.41
2018-05-25T02:38:39.670Z,948.43
2018-05-25T02:39:39.629Z,948.39
2018-05-25T02:40:39.635Z,948.38
2018-05-25T02:41:39.622Z,948.32
2018-05-25T02:42:39.621Z,948.32
2018-05-25T02:43:39.615Z,948.33
2018-05-25T02:44:39.609Z,948.34
2018-05-25T02:45:39.608Z,948.33
2018-05-25T02:46:39.599Z,948.35
2018-05-25T02:47:39.598Z,948.36
2018-05-25T02:48:39.592Z,948.34
2018-05-25T02:49:39.584Z,948.37
2018-05-25T02:50:39.585Z,948.34
2018-05-25T02:51:39.577Z,948.32
2018-05-25T02:52:39.568Z,948.37
2018-05-25T02:53:39.576Z,948.33
2018-05-25T02:54:39.551Z,948.35
2018-05-25T02:55:39.556Z,948.34
2018-05-25T02:56:39.552Z,948.33
2018-05-25T02:57:39.551Z,948.33
2018-05-25T02:58:39.547Z,948.36
2018-05-25T02:59:39.546Z,948.33
2018-05-25T03:00:39.525Z,948.36
2018-05-25T03:01:39.525Z,948.35
2018-05-25T03:02:39.529Z,948.36
2018-05-25T03:03:39.535Z,948.37
2018-05-25T03:04:39.527Z,948.36
2018-05-25T03:05:39.501Z,948.33
2018-05-25T03:06:39.507Z,948.32
2018-05-25T03:07:39.502Z,948.32
2018-05-25T03:08:39.497Z,948.33
2018-05-25T03:09:39.494Z,948.30
2018-05-25T03:10:39.483Z,948.34
2018-05-25T03:11:39.480Z,948.32
2018-05-25T03:12:39.482Z,948.33
2018-05-25T03:13:39.474Z,948.33
2018-05-25T03:14:39.473Z,948.36
2018-05-25T03:15:39.461Z,948.35
2018-05-25T03:16:39.462Z,948.36
2018-05-25T03:17:39.470Z,948.35
2018-05-25T03:18:39.449Z,948.37
2018-05-25T03:19:39.444Z,948.37
2018-05-25T03:20:39.439Z,948.38
2018-05-25T03:21:39.436Z,948.35
2018-05-25T03:22:39.444Z,948.36
2018-05-25T03:23:39.420Z,948.37
2018-05-25T03:24:39.429Z,948.41
2018-05-25T03:25:39.423Z,948.35
2018-05-25T03:26:39.417Z,948.34
2018-05-25T03:27:39.409Z,948.34
2018-05-25T03:28:39.401Z,948.35
2018-05-25T03:29:39.397Z,948.39
2018-05-25T03:30:39.392Z,948.43
2018-05-25T03:31:39.377Z,948.42
2018-05-25T03:32:39.382Z,948.46
2018-05-25T03:33:39.376Z,948.47
2018-05-25T03:34:39.375Z,948.44
2018-05-25T03:35:39.390Z,948.46
2018-05-25T03:36:39.366Z,948.48
2018-05-25T03:37:39.364Z,948.47
2018-05-25T03:38:39.359Z,948.45
2018-05-25T03:39:39.352Z,948.47
2018-05-25T03:40:39.361Z,948.47
2018-05-25T03:41:39.340Z,948.47
2018-05-25T03:42:39.337Z,948.48
2018-05-25T03:43:39.345Z,948.50
2018-05-25T03:44:39.330Z,948.51
2018-05-25T03:45:39.324Z,948.48
2018-05-25T03:46:39.321Z,948.50
2018-05-25T03:47:39.312Z,948.51
2018-05-25T03:48:39.311Z,948.50
2018-05-25T03:49:39.305Z,948.49
2018-05-25T03:50:39.301Z,948.48
2018-05-25T03:51:39.300Z,948.48
2018-05-25T03:52:39.292Z,948.49
2018-05-25T03:53:39.288Z,948.50
2018-05-25T03:54:39.282Z,948.47
2018-05-25T03:55:39.267Z,948.46
2018-05-25T03:56:39.275Z,948.47
2018-05-25T03:57:39.271Z,948.43
2018-05-25T03:58:39.258Z,948.44
2018-05-25T03:59:39.259Z,948.41
2018-05-25T04:00:39.257Z,948.42
2018-05-25T04:01:39.268Z,948.43
2018-05-25T04:02:39.251Z,948.42
2018-05-25T04:03:39.239Z,948.46
2018-05-25T04:04:39.253Z,948.47
2018-05-25T04:05:39.237Z,948.47
2018-05-25T04:06:39.231Z,948.45
2018-05-25T04:07:39.219Z,948.44
2018-05-25T04:08:39.221Z,948.49
2018-05-25T04:09:39.222Z,948.49
2018-05-25T04:10:39.218Z,948.48
2018-05-25T04:11:39.211Z,948.46
2018-05-25T04:12:39.207Z,948.42
2018-05-25T04:13:39.204Z,948.45
2018-05-25T04:14:39.201Z,948.44
2018-05-25T04:15:39.198Z,948.43
2018-05-25T04:16:39.191Z,948.45
2018-05-25T04:17:39.184Z,948.45
2018-05-25T04:18:39.183Z,948.49
2018-05-25T04:19:39.198Z,948.42
2018-05-25T04:20:39.208Z,948.44
2018-05-25T04:21:39.174Z,948.42
2018-05-25T04:22:39.171Z,948.46
2018-05-25T04:23:39.177Z,948.42
2018-05-25T04:24:39.162Z,948.44
2018-05-25T04:25:39.157Z,948.45
2018-05-25T04:26:39.176Z,948.47
2018-05-25T04:27:39.149Z,948.48
2018-05-25T04:28:39.143Z,948.49
2018-05-25T04:29:39.141Z,948.50
2018-05-25T04:30:39.139Z,948.49
2018-05-25T04:31:39.144Z,948.50
2018-05-25T04:32:39.144Z,948.48
2018-05-25T04:33:39.128Z,948.44
2018-05-25T04:34:39.127Z,948.43
2018-05-25T04:35:39.135Z,948.45
2018-05-25T04:36:39.106Z,948.45
2018-05-25T04:37:39.122Z,948.43
2018-05-25T04:38:39.110Z,948.44
2018-05-25T04:39:39.108Z,948.46
2018-05-25T04:40:39.113Z,948.44
2018-05-25T04:41:39.106Z,948.39
2018-05-25T04:42:39.096Z,948.41
2018-05-25T04:43:39.120Z,948.43
2018-05-25T04:44:39.101Z,948.42
2018-05-25T04:45:39.090Z,948.42
2018-05-25T04:46:39.084Z,948.43
2018-05-25T04:47:39.085Z,948.44
2018-05-25T04:48:39.083Z,948.45
2018-05-25T04:49:39.096Z,948.45
2018-05-25T04:50:39.077Z,948.41
2018-05-25T04:51:39.072Z,948.44
2018-05-25T04:52:39.096Z,948.47
2018-05-25T04:53:39.093Z,948.43
2018-05-25T04:54:39.066Z,948.38
2018-05-25T04:55:39.061Z,948.36
2018-05-25T04:56:39.060Z,948.39
2018-05-25T04:57:39.054Z,948.39
2018-05-25T04:58:39.066Z,948.38
2018-05-25T04:59:39.050Z,948.42
2018-05-25T05:00:39.042Z,948.40
2018-05-25T05:01:39.046Z,948.41
2018-05-25T05:02:39.042Z,948.37
2018-05-25T05:03:39.040Z,948.39
2018-05-25T05:04:39.034Z,948.40
2018-05-25T05:05:39.036Z,948.40
2018-05-25T05:06:39.031Z,948.39
2018-05-25T05:07:39.027Z,948.38
2018-05-25T05:08:39.025Z,948.38
2018-05-25T05:09:39.056Z,948.41
2018-05-25T05:10:39.034Z,948.42
2018-05-25T05:11:39.019Z,948.39
2018-05-25T05:12:39.045Z,948.40
2018-05-25T05:13:39.020Z,948.41
2018-05-25T05:14:39.008Z,948.40
2018-05-25T05:15:39.026Z,948.40
2018-05-25T05:16:39.009Z,948.38
2018-05-25T05:17:39.004Z,948.38
2018-05-25T05:18:39.010Z,948.42
2018-05-25T05:19:38.998Z,948.41
2018-05-25T05:20:38.995Z,948.40
2018-05-25T05:21:39.014Z,948.42
2018-05-25T05:22:39.009Z,948.43
2018-05-25T05:23:38.987Z,948.42
2018-05-25T05:24:38.986Z,948.42
2018-05-25T05:25:38.986Z,948.40
2018-05-25T05:26:38.988Z,948.40
2018-05-25T05:27:38.979Z,948.39
2018-05-25T05:28:38.980Z,948.46
2018-05-25T05:29:38.977Z,948.44
2018-05-25T05:30:38.976Z,948.42
2018-05-25T05:31:38.975Z,948.44
2018-05-25T05:32:38.970Z,948.44
2018-05-25T05:33:39.017Z,948.45
2018-05-25T05:34:38.969Z,948.46
2018-05-25T05:35:38.963Z,948.48
2018-05-25T05:36:38.962Z,948.52
2018-05-25T05:37:38.960Z,948.51
2018-05-25T05:38:38.961Z,948.54
2018-05-25T05:39:38.947Z,948.52
2018-05-25T05:40:38.953Z,948.53
2018-05-25T05:41:38.956Z,948.51
2018-05-25T05:42:38.961Z,948.53
2018-05-25T05:43:38.951Z,948.53
2018-05-25T05:44:38.964Z,948.50
2018-05-25T05:45:38.947Z,948.53
2018-05-25T05:46:38.945Z,948.51
2018-05-25T05:47:38.946Z,948.53
2018-05-25T05:48:38.942Z,948.53
2018-05-25T05:49:38.939Z,948.56
2018-05-25T05:50:38.941Z,948.55
2018-05-25T05:51:38.935Z,948.53
2018-05-25T05:52:38.951Z,948.58
2018-05-25T05:53:38.935Z,948.60
2018-05-25T05:54:38.933Z,948.57
2018-05-25T05:55:38.946Z,948.56
2018-05-25T05:56:38.925Z,948.60
2018-05-25T05:57:38.929Z,948.55
2018-05-25T05:58:38.926Z,948.57
2018-05-25T05:59:38.936Z,948.61
2018-05-25T06:00:38.915Z,948.57
2018-05-25T06:01:38.922Z,948.56
2018-05-25T06:02:38.922Z,948.61
2018-05-25T06:03:38.920Z,948.57
2018-05-25T06:04:38.929Z,948.58
2018-05-25T06:05:38.916Z,948.63
2018-05-25T06:06:38.914Z,948.60
2018-05-25T06:07:38.913Z,948.59
2018-05-25T06:08:38.928Z,948.63
2018-05-25T06:09:38.913Z,948.64
2018-05-25T06:10:38.911Z,948.65
2018-05-25T06:11:38.906Z,948.68
2018-05-25T06:12:38.907Z,948.65
2018-05-25T06:13:38.929Z,948.70
2018-05-25T06:14:38.904Z,948.70
2018-05-25T06:15:38.895Z,948.70
2018-05-25T06:16:38.921Z,948.70
2018-05-25T06:17:38.897Z,948.74
2018-05-25T06:18:38.898Z,948.70
2018-05-25T06:19:38.900Z,948.68
2018-05-25T06:20:38.905Z,948.70
2018-05-25T06:21:38.895Z,948.74
2018-05-25T06:22:38.894Z,948.72
2018-05-25T06:23:38.894Z,948.70
2018-05-25T06:24:38.911Z,948.69
2018-05-25T06:25:38.915Z,948.71
2018-05-25T06:26:38.892Z,948.68
2018-05-25T06:27:38.889Z,948.69
2018-05-25T06:28:38.881Z,948.68
2018-05-25T06:29:38.886Z,948.71
2018-05-25T06:30:38.887Z,948.66
2018-05-25T06:31:38.884Z,948.71
2018-05-25T06:32:38.897Z,948.66
2018-05-25T06:33:38.898Z,948.73
2018-05-25T06:34:38.886Z,948.67
2018-05-25T06:35:38.885Z,948.71
2018-05-25T06:36:38.884Z,948.71
2018-05-25T06:37:38.883Z,948.71
2018-05-25T06:38:38.888Z,948.72
2018-05-25T06:39:38.883Z,948.70
2018-05-25T06:40:38.903Z,948.71
2018-05-25T06:41:38.877Z,948.72
2018-05-25T06:42:38.877Z,948.74
2018-05-25T06:43:38.883Z,948.72
2018-05-25T06:44:38.885Z,948.72
2018-05-25T06:45:38.889Z,948.77
2018-05-25T06:46:38.886Z,948.74
2018-05-25T06:47:38.885Z,948.74
2018-05-25T06:48:38.891Z,948.73
2018-05-25T06:49:38.897Z,948.76
2018-05-25T06:50:38.909Z,948.77
2018-05-25T06:51:38.885Z,948.75
2018-05-25T06:52:38.886Z,948.74
2018-05-25T06:53:38.886Z,948.77
2018-05-25T06:54:38.884Z,948.73
2018-05-25T06:55:38.889Z,948.75
2018-05-25T06:56:38.889Z,948.72
2018-05-25T06:57:38.889Z,948.73
2018-05-25T06:58:38.895Z,948.75
2018-05-25T06:59:38.891Z,948.73
2018-05-25T07:00:38.893Z,948.78
2018-05-25T07:01:38.896Z,948.74
2018-05-25T07:02:38.894Z,948.71
2018-05-25T07:03:38.911Z,948.73
2018-05-25T07:04:38.901Z,948.72
2018-05-25T07:05:38.898Z,948.79
2018-05-25T07:06:38.903Z,948.86
2018-05-25T07:07:38.904Z,948.88
2018-05-25T07:08:38.912Z,948.89
2018-05-25T07:09:38.923Z,948.94
2018-05-25T07:10:38.919Z,948.94
2018-05-25T07:11:38.936Z,948.91
2018-05-25T07:12:38.931Z,948.94
2018-05-25T07:13:38.961Z,948.92
2018-05-25T07:14:38.945Z,948.96
2018-05-25T07:15:38.955Z,949.02
2018-05-25T07:16:38.963Z,949.03
2018-05-25T07:17:38.972Z,949.01
2018-05-25T07:18:38.981Z,948.99
2018-05-25T07:19:38.993Z,948.97
2018-05-25T07:20:38.999Z,949.01
2018-05-25T07:21:39.012Z,948.94
2018-05-25T07:22:39.020Z,948.98
2018-05-25T07:23:39.058Z,949.04
2018-05-25T07:24:39.054Z,949.02
2018-05-25T07:25:39.046Z,949.01
2018-05-25T07:26:39.068Z,949.06
2018-05-25T07:27:39.079Z,948.99
2018-05-25T07:28:39.096Z,949.01
2018-05-25T07:29:39.108Z,948.99
2018-05-25T07:30:39.117Z,949.00
2018-05-25T07:31:39.122Z,948.97
2018-05-25T07:32:39.184Z,948.96
2018-05-25T07:33:39.158Z,948.96
2018-05-25T07:34:39.179Z,948.99
2018-05-25T07:35:39.185Z,948.95
2018-05-25T07:36:39.201Z,948.93
2018-05-25T07:37:39.212Z,948.92
2018-05-25T07:38:39.227Z,948.93
2018-05-25T07:39:39.246Z,948.91
2018-05-25T07:40:39.257Z,948.99
2018-05-25T07:41:39.271Z,948.94
2018-05-25T07:42:39.289Z,948.94
2018-05-25T07:43:39.300Z,948.92
2018-05-25T07:44:39.316Z,948.91
2018-05-25T07:45:39.358Z,948.91
2018-05-25T07:46:39.366Z,948.97
2018-05-25T07:47:39.365Z,948.89
2018-05-25T07:48:39.381Z,948.90
2018-05-25T07:49:39.410Z,948.89
2018-05-25T07:50:39.402Z,948.92
2018-05-25T07:51:39.428Z,948.88
2018-05-25T07:52:39.438Z,948.87
2018-05-25T07:53:39.451Z,948.89
2018-05-25T07:54:39.475Z,948.90
2018-05-25T07:55:39.487Z,948.91
2018-05-25T07:56:39.507Z,948.92
2018-05-25T07:57:39.518Z,948.91
2018-05-25T07:58:39.538Z,948.92
2018-05-25T07:59:39.550Z,948.88
2018-05-25T08:00:39.578Z,948.88
2018-05-25T08:01:39.577Z,948.88
2018-05-25T08:02:39.605Z,948.90
2018-05-25T08:03:39.651Z,948.85
2018-05-25T08:04:39.651Z,948.83
2018-05-25T08:05:39.649Z,948.87
2018-05-25T08:06:39.671Z,948.84
2018-05-25T08:07:39.681Z,948.84
2018-05-25T08:08:39.693Z,948.84
2018-05-25T08:09:39.721Z,948.83
2018-05-25T08:10:39.741Z,948.81
2018-05-25T08:11:39.756Z,948.84
2018-05-25T08:12:39.775Z,948.88
2018-05-25T08:13:39.795Z,948.86
2018-05-25T08:14:39.807Z,948.86
2018-05-25T08:15:39.823Z,948.89
2018-05-25T08:16:39.840Z,948.89
2018-05-25T08:17:39.852Z,948.88
2018-05-25T08:18:39.935Z,948.89
2018-05-25T08:19:40.007Z,948.88
2018-05-25T08:20:40.445Z,948.88
2018-05-25T08:21:40.416Z,948.94
2018-05-25T08:22:40.588Z,948.91
2018-05-25T08:23:40.327Z,948.92
2018-05-25T08:24:40.625Z,948.97
2018-05-25T08:25:40.298Z,948.97
2018-05-25T08:26:40.293Z,949.00
2018-05-25T08:27:40.466Z,948.98
2018-05-25T08:28:40.647Z,948.97
2018-05-25T08:29:40.679Z,948.97
2018-05-25T08:30:40.941Z,949.00
2018-05-25T08:31:40.289Z,948.95
2018-05-25T08:32:40.744Z,948.97
2018-05-25T08:33:40.550Z,948.93
2018-05-25T08:34:40.681Z,948.96
2018-05-25T08:35:40.290Z,948.93
2018-05-25T08:36:40.432Z,948.98
2018-05-25T08:37:40.496Z,948.99
2018-05-25T08:38:40.674Z,948.97
2018-05-25T08:39:40.559Z,948.98
2018-05-25T08:40:40.517Z,949.00
2018-05-25T08:41:40.473Z,948.96
2018-05-25T08:42:40.544Z,948.94
2018-05-25T08:43:40.813Z,948.98
2018-05-25T08:44:40.953Z,948.96
2018-05-25T08:45:40.499Z,948.98
2018-05-25T08:46:40.905Z,948.98
2018-05-25T08:47:40.527Z,949.01
2018-05-25T08:48:40.595Z,949.02
2018-05-25T08:49:40.817Z,949.07
2018-05-25T08:50:40.550Z,949.04
2018-05-25T08:51:40.550Z,949.02
2018-05-25T08:52:40.598Z,949.00
2018-05-25T08:53:40.581Z,948.98
2018-05-25T08:54:40.653Z,949.01
2018-05-25T08:55:40.570Z,949.05
2018-05-25T08:56:40.657Z,949.03
2018-05-25T08:57:40.652Z,949.01
2018-05-25T08:58:40.651Z,949.02
2018-05-25T08:59:40.679Z,949.04
2018-05-25T09:00:40.725Z,949.03
2018-05-25T09:01:40.726Z,949.04
2018-05-25T09:02:40.760Z,949.00
2018-05-25T09:03:40.762Z,949.01
2018-05-25T09:04:40.759Z,949.02
2018-05-25T09:05:40.777Z,949.02
2018-05-25T09:06:40.911Z,949.00
2018-05-25T09:07:40.835Z,948.98
2018-05-25T09:08:40.863Z,949.02
2018-05-25T09:09:40.877Z,949.03
2018-05-25T09:10:40.936Z,949.03
2018-05-25T09:11:40.950Z,949.02
2018-05-25T09:12:41.288Z,948.99
2018-05-25T09:13:40.986Z,948.99
2018-05-25T09:14:41.012Z,948.93
2018-05-25T09:15:41.013Z,948.99
2018-05-25T09:16:41.138Z,949.01
2018-05-25T09:17:41.067Z,949.06
2018-05-25T09:18:41.150Z,949.03
2018-05-25T09:19:41.114Z,949.01
2018-05-25T09:20:41.158Z,949.03
2018-05-25T09:21:41.233Z,949.04
2018-05-25T09:22:41.197Z,949.01
2018-05-25T09:23:41.252Z,949.02
2018-05-25T09:24:41.269Z,949.00
2018-05-25T09:25:41.251Z,948.96
2018-05-25T09:26:41.281Z,948.98
2018-05-25T09:27:41.327Z,948.98
2018-05-25T09:28:41.372Z,948.96
2018-05-25T09:29:41.376Z,948.95
2018-05-25T09:30:41.393Z,948.98
2018-05-25T09:31:41.483Z,948.99
2018-05-25T09:32:41.432Z,949.01
2018-05-25T09:33:41.501Z,948.98
2018-05-25T09:34:41.500Z,948.95
2018-05-25T09:35:41.469Z,948.96
2018-05-25T09:36:41.563Z,948.78
2018-05-25T09:37:41.544Z,948.93
2018-05-25T09:38:41.578Z,948.84
2018-05-25T09:39:41.633Z,948.81
2018-05-25T09:40:41.589Z,948.86
2018-05-25T09:41:41.662Z,948.83
2018-05-25T09:42:41.643Z,948.84
2018-05-25T09:43:41.701Z,948.79
2018-05-25T09:44:41.676Z,948.81
2018-05-25T09:45:41.684Z,948.83
2018-05-25T09:46:41.757Z,948.82
2018-05-25T09:47:41.718Z,948.88
2018-05-25T09:48:41.762Z,948.97
2018-05-25T09:49:41.757Z,948.85
2018-05-25T09:50:41.741Z,948.77
2018-05-25T09:51:41.779Z,948.80
2018-05-25T09:52:41.779Z,948.78
2018-05-25T09:53:41.886Z,948.76
2018-05-25T09:54:41.833Z,948.76
2018-05-25T09:55:41.818Z,948.77
2018-05-25T09:56:41.900Z,948.76
2018-05-25T09:57:41.847Z,948.73
2018-05-25T09:58:41.917Z,948.74
2018-05-25T09:59:41.887Z,948.73
2018-05-25T10:00:41.896Z,948.76
2018-05-25T10:01:41.904Z,948.81
2018-05-25T10:02:41.918Z,948.83
2018-05-25T10:03:41.949Z,948.80
2018-05-25T10:04:41.930Z,948.87
2018-05-25T10:05:41.921Z,948.73
2018-05-25T10:06:42.031Z,948.73
2018-05-25T10:07:41.989Z,948.71
2018-05-25T10:08:41.980Z,948.88
2018-05-25T10:09:41.966Z,948.83
2018-05-25T10:10:42.080Z,948.84
2018-05-25T10:11:42.077Z,948.89
2018-05-25T10:12:42.007Z,948.84
2018-05-25T10:13:42.041Z,948.72
2018-05-25T10:14:42.091Z,948.75
2018-05-25T10:15:42.050Z,948.76
2018-05-25T10:16:42.083Z,948.69
2018-05-25T10:17:42.164Z,948.69
2018-05-25T10:18:42.212Z,948.69
2018-05-25T10:19:42.162Z,948.71
2018-05-25T10:20:42.258Z,948.71
2018-05-25T10:21:42.167Z,948.70
2018-05-25T10:22:42.175Z,948.68
2018-05-25T10:23:42.267Z,948.69
2018-05-25T10:24:42.114Z,948.66
2018-05-25T10:25:42.126Z,948.73
2018-05-25T10:26:42.170Z,948.68
2018-05-25T10:27:42.164Z,948.67
2018-05-25T10:28:42.220Z,948.69
2018-05-25T10:29:42.183Z,948.66
2018-05-25T10:30:42.260Z,948.69
2018-05-25T10:31:42.180Z,948.73
2018-05-25T10:32:42.219Z,948.68
2018-05-25T10:33:42.264Z,948.70
2018-05-25T10:34:42.314Z,948.66
2018-05-25T10:35:42.197Z,948.69
2018-05-25T10:36:42.248Z,948.72
2018-05-25T10:37:42.219Z,948.67
2018-05-25T10:38:42.422Z,948.69
2018-05-25T10:39:42.251Z,948.68
2018-05-25T10:40:42.247Z,948.69
2018-05-25T10:41:42.311Z,948.67
2018-05-25T10:42:42.285Z,948.69
2018-05-25T10:43:42.369Z,948.67
2018-05-25T10:44:42.283Z,948.79
2018-05-25T10:45:42.282Z,948.65
2018-05-25T10:46:42.340Z,948.65
2018-05-25T10:47:42.325Z,948.60
2018-05-25T10:48:42.368Z,948.66
2018-05-25T10:49:42.337Z,948.75
2018-05-25T10:50:42.383Z,948.80
2018-05-25T10:51:42.430Z,948.77
2018-05-25T10:52:42.339Z,948.83
2018-05-25T10:53:42.389Z,948.73
2018-05-25T10:54:42.388Z,948.80
2018-05-25T10:55:42.353Z,948.79
2018-05-25T10:56:42.381Z,948.79
2018-05-25T10:57:42.384Z,948.79
2018-05-25T10:58:42.450Z,948.72
2018-05-25T10:59:42.393Z,948.72
2018-05-25T11:00:42.504Z,948.77
2018-05-25T11:01:42.480Z,948.79
2018-05-25T11:02:42.533Z,948.78
2018-05-25T11:03:42.533Z,948.76
2018-05-25T11:04:42.476Z,948.74
2018-05-25T11:05:42.484Z,948.77
2018-05-25T11:06:42.583Z,948.74
2018-05-25T11:07:42.522Z,948.70
2018-05-25T11:08:42.542Z,948.68
2018-05-25T11:09:42.576Z,948.69
2018-05-25T11:10:42.598Z,948.73
2018-05-25T11:11:42.642Z,948.73
2018-05-25T11:12:42.673Z,948.76
2018-05-25T11:13:42.619Z,948.78
2018-05-25T11:14:42.687Z,948.75
2018-05-25T11:15:42.657Z,948.74
2018-05-25T11:16:42.677Z,948.69
2018-05-25T11:17:42.702Z,948.67
2018-05-25T11:18:42.755Z,948.65
2018-05-25T11:19:42.743Z,948.60
2018-05-25T11:20:42.759Z,948.61
2018-05-25T11:21:42.821Z,948.66
2018-05-25T11:22:42.806Z,948.61
2018-05-25T11:23:42.815Z,948.62
2018-05-25T11:24:42.866Z,948.64
2018-05-25T11:25:42.854Z,948.64
2018-05-25T11:26:42.902Z,948.65
2018-05-25T11:27:42.897Z,948.66
2018-05-25T11:28:42.960Z,948.62
2018-05-25T11:29:43.041Z,948.61
2018-05-25T11:30:42.968Z,948.56
2018-05-25T11:31:42.998Z,948.60
2018-05-25T11:32:43.035Z,948.54
2018-05-25T11:33:43.060Z,948.54
2018-05-25T11:34:43.121Z,948.55
2018-05-25T11:35:43.070Z,948.54
2018-05-25T11:36:43.143Z,948.57
2018-05-25T11:37:43.187Z,948.58
2018-05-25T11:38:43.127Z,948.60
2018-05-25T11:39:43.253Z,948.58
2018-05-25T11:40:43.229Z,948.54
2018-05-25T11:41:43.184Z,948.58
2018-05-25T11:42:43.223Z,948.53
2018-05-25T11:43:43.307Z,948.54
2018-05-25T11:44:43.301Z,948.54
2018-05-25T11:45:43.276Z,948.54
2018-05-25T11:46:43.338Z,948.51
2018-05-25T11:47:43.379Z,948.57
2018-05-25T11:48:43.418Z,948.55
2018-05-25T11:49:43.403Z,948.59
2018-05-25T11:50:43.395Z,948.53
2018-05-25T11:51:43.457Z,948.56
2018-05-25T11:52:43.530Z,948.54
2018-05-25T11:53:43.604Z,948.54
2018-05-25T11:54:43.591Z,948.50
2018-05-25T11:55:43.486Z,948.47
2018-05-25T11:56:43.548Z,948.51
2018-05-25T11:57:43.545Z,948.48
2018-05-25T11:58:43.560Z,948.48
2018-05-25T11:59:43.581Z,948.51
2018-05-25T12:00:43.625Z,948.49
2018-05-25T12:01:43.623Z,948.52
2018-05-25T12:02:43.656Z,948.48
2018-05-25T12:03:43.696Z,948.56
2018-05-25T12:04:43.670Z,948.55
2018-05-25T12:05:43.696Z,948.50
2018-05-25T12:06:43.901Z,948.49
2018-05-25T12:07:43.747Z,948.52
2018-05-25T12:08:43.767Z,948.48
2018-05-25T12:09:43.755Z,948.50
2018-05-25T12:10:43.796Z,948.42
2018-05-25T12:11:43.857Z,948.45
2018-05-25T12:12:43.830Z,948.43
2018-05-25T12:13:43.849Z,948.42
2018-05-25T12:14:43.881Z,948.42
2018-05-25T12:15:43.853Z,948.41
2018-05-25T12:16:43.913Z,948.37
2018-05-25T12:17:43.947Z,948.36
2018-05-25T12:18:43.955Z,948.35
2018-05-25T12:19:43.956Z,948.34
2018-05-25T12:20:43.939Z,948.33
2018-05-25T12:21:44.013Z,948.29
2018-05-25T12:22:44.072Z,948.34
2018-05-25T12:23:44.041Z,948.30
2018-05-25T12:24:44.093Z,948.29
2018-05-25T12:25:44.030Z,948.28
2018-05-25T12:26:44.144Z,948.28
2018-05-25T12:27:44.104Z,948.27
2018-05-25T12:28:44.127Z,948.24
2018-05-25T12:29:44.096Z,948.22
2018-05-25T12:30:44.159Z,948.25
2018-05-25T12:31:44.192Z,948.24
2018-05-25T12:32:44.188Z,948.25
2018-05-25T12:33:44.203Z,948.25
2018-05-25T12:34:44.268Z,948.19
2018-05-25T12:35:44.191Z,948.22
2018-05-25T12:36:44.260Z,948.16
2018-05-25T12:37:44.219Z,948.17
2018-05-25T12:38:44.273Z,948.16
2018-05-25T12:39:44.257Z,948.19
2018-05-25T12:40:44.264Z,948.18
2018-05-25T12:41:44.439Z,948.15
2018-05-25T12:42:44.357Z,948.18
2018-05-25T12:43:44.343Z,948.19
2018-05-25T12:44:44.341Z,948.16
2018-05-25T12:45:44.317Z,948.22
2018-05-25T12:46:44.379Z,948.18
2018-05-25T12:47:44.405Z,948.15
2018-05-25T12:48:44.409Z,948.21
2018-05-25T12:49:44.442Z,948.19
2018-05-25T12:50:44.374Z,948.14
2018-05-25T12:51:44.461Z,948.18
2018-05-25T12:52:44.396Z,948.14
2018-05-25T12:53:44.499Z,948.12
2018-05-25T12:54:44.397Z,948.15
2018-05-25T12:55:44.391Z,948.12
2018-05-25T12:56:44.522Z,948.15
2018-05-25T12:57:44.477Z,948.07
2018-05-25T12:58:44.479Z,948.15
2018-05-25T12:59:44.485Z,948.11
2018-05-25T13:00:44.468Z,948.07
2018-05-25T13:01:44.450Z,948.05
2018-05-25T13:02:44.483Z,948.04